Time;durP1;ratioP1;P1;durP2;ratioP2;P2;SDS_P1;SDS_P2;PMS_P1;PMS_P2;Temp;Humidity;BMP_temperature;BMP_pressure;BME280_temperature;BME280_humidity;BME280_pressure;Samples;Min_cycle;Max_cycle;Signal;HPM_P1;HPM_P2
2023/06/08 00:00:23;;;;;;;;;;;;;;;;;;5009358;28;19979;-62
2023/06/08 00:02:49;;;;;;;;;;;;;;;;;;5013952;28;19933;-62
2023/06/08 00:05:16;;;;;;;;;;;;;;;;;;5019437;28;20447;-62
2023/06/08 00:07:42;;;;;;;;;;;;;;;;;;5022000;28;19926;-62
2023/06/08 00:10:09;;;;;;;;;;;;;;;;;;5019840;28;19931;-61
2023/06/08 00:12:35;;;;;;;;;;;;;;;;;;5018529;28;19968;-61
2023/06/08 00:15:01;;;;;;;;;;;;;;;;;;5011592;28;20552;-61
2023/06/08 00:17:27;;;;;;;;;;;;;;;;;;5020795;28;19925;-62
2023/06/08 00:19:56;;;;;;;;;;;;;;;;;;5005352;28;19977;-62
2023/06/08 00:22:22;;;;;;;;;;;;;;;;;;4985397;28;19980;-62
2023/06/08 00:24:48;;;;;;;;;;;;;;;;;;5014870;28;20027;-61
2023/06/08 00:27:14;;;;;;;;;;;;;;;;;;5009507;28;20021;-61
2023/06/08 00:29:40;;;;;;;;;;;;;;;;;;5021638;28;20379;-62
2023/06/08 00:32:06;;;;;;;;;;;;;;;;;;5011155;28;20342;-62
2023/06/08 00:34:32;;;;;;;;;;;;;;;;;;5024789;28;20389;-62
2023/06/08 00:36:58;;;;;;;;;;;;;;;;;;5006946;28;19948;-61
2023/06/08 00:39:24;;;;;;;;;;;;;;;;;;4972707;28;19926;-62
2023/06/08 00:41:50;;;;;;;;;;;;;;;;;;5006649;28;19980;-62
2023/06/08 00:44:16;;;;;;;;;;;;;;;;;;5007938;28;19980;-61
2023/06/08 00:46:42;;;;;;;;;;;;;;;;;;5026068;28;19943;-61
2023/06/08 00:49:08;;;;;;;;;;;;;;;;;;5025877;28;19945;-62
2023/06/08 00:51:34;;;;;;;;;;;;;;;;;;5019105;28;20337;-62
2023/06/08 00:54:00;;;;;;;;;;;;;;;;;;5020806;28;19936;-62
2023/06/08 00:56:26;;;;;;;;;;;;;;;;;;5016719;28;19929;-62
2023/06/08 00:58:52;;;;;;;;;;;;;;;;;;5018246;28;19925;-62
2023/06/08 01:01:18;;;;;;;;;;;;;;;;;;4999627;28;19932;-62
2023/06/08 01:03:44;;;;;;;;;;;;;;;;;;4999763;28;19926;-62
2023/06/08 01:06:12;;;;;;;;;;;;;;;;;;5021028;28;19929;-62
2023/06/08 01:08:39;;;;;;;;;;;;;;;;;;5019878;28;20446;-62
2023/06/08 01:11:05;;;;;;;;;;;;;;;;;;5021520;28;20017;-62
2023/06/08 01:13:31;;;;;;;;;;;;;;;;;;5094817;23;19925;-63
2023/06/08 01:15:57;;;;;;;;;;;;;;;;;;5010179;28;20445;-63
2023/06/08 01:18:23;;;;;;;;;;;;;;;;;;5009214;28;19968;-64
2023/06/08 01:20:49;;;;;;;;;;;;;;;;;;5003224;28;19936;-63
2023/06/08 01:23:20;;;;;;;;;;;;;;;;;;5006615;28;20442;-63
2023/06/08 01:25:46;;;;;;;;;;;;;;;;;;5003344;28;19929;-63
2023/06/08 01:28:12;;;;;;;;;;;;;;;;;;5007358;28;19929;-63
2023/06/08 01:30:38;;;;;;;;;;;;;;;;;;5013245;28;19940;-63
2023/06/08 01:33:04;;;;;;;;;;;;;;;;;;5017892;28;20017;-63
2023/06/08 01:35:30;;;;;;;;;;;;;;;;;;5018268;28;20404;-63
2023/06/08 01:37:56;;;;;;;;;;;;;;;;;;5024894;28;20016;-63
2023/06/08 01:40:22;;;;;;;;;;;;;;;;;;5018951;28;19925;-64
2023/06/08 01:42:48;;;;;;;;;;;;;;;;;;5013254;28;19987;-64
2023/06/08 01:45:14;;;;;;;;;;;;;;;;;;5012234;28;19925;-63
2023/06/08 01:47:40;;;;;;;;;;;;;;;;;;5007079;28;19930;-64
2023/06/08 01:50:06;;;;;;;;;;;;;;;;;;5004568;28;19995;-64
2023/06/08 01:52:32;;;;;;;;;;;;;;;;;;5005233;28;19925;-64
2023/06/08 01:54:57;;;;;;;;;;;;;;;;;;5004802;28;20378;-63
2023/06/08 01:57:23;;;;;;;;;;;;;;;;;;5005179;28;20008;-64
2023/06/08 01:59:49;;;;;;;;;;;;;;;;;;5020780;28;19925;-64
2023/06/08 02:02:15;;;;;;;;;;;;;;;;;;5015755;28;19926;-64
2023/06/08 02:04:41;;;;;;;;;;;;;;;;;;5004141;28;19926;-64
2023/06/08 02:07:07;;;;;;;;;;;;;;;;;;5005473;28;19971;-64
2023/06/08 02:09:33;;;;;;;;;;;;;;;;;;5005025;28;20302;-64
2023/06/08 02:11:59;;;;;;;;;;;;;;;;;;5005326;28;19933;-63
2023/06/08 02:14:25;;;;;;;;;;;;;;;;;;5004898;28;19926;-63
2023/06/08 02:16:52;;;;;;;;;;;;;;;;;;5004482;28;19933;-63
2023/06/08 02:19:19;;;;;;;;;;;;;;;;;;5004086;28;20390;-63
2023/06/08 02:21:45;;;;;;;;;;;;;;;;;;5016263;28;19932;-63
2023/06/08 02:24:11;;;;;;;;;;;;;;;;;;5004813;28;20004;-64
2023/06/08 02:26:37;;;;;;;;;;;;;;;;;;5018015;28;20371;-63
2023/06/08 02:29:03;;;;;;;;;;;;;;;;;;5004534;28;19972;-63
2023/06/08 02:31:29;;;;;;;;;;;;;;;;;;5004987;28;20012;-64
2023/06/08 02:33:55;;;;;;;;;;;;;;;;;;5020022;28;19932;-64
2023/06/08 02:36:23;;;;;;;;;;;;;;;;;;5014338;28;19930;-64
2023/06/08 02:38:48;;;;;;;;;;;;;;;;;;5004587;28;19925;-63
2023/06/08 02:41:15;;;;;;;;;;;;;;;;;;5004676;28;19944;-64
2023/06/08 02:43:40;;;;;;;;;;;;;;;;;;5004682;28;19962;-63
2023/06/08 02:46:06;;;;;;;;;;;;;;;;;;5004373;28;20403;-64
2023/06/08 02:48:32;;;;;;;;;;;;;;;;;;5004616;28;19925;-63
2023/06/08 02:50:58;;;;;;;;;;;;;;;;;;5004334;28;19948;-63
2023/06/08 02:53:24;;;;;;;;;;;;;;;;;;5003925;28;19930;-63
2023/06/08 02:55:50;;;;;;;;;;;;;;;;;;5004959;28;19991;-63
2023/06/08 02:58:17;;;;;;;;;;;;;;;;;;5004378;28;19929;-63
2023/06/08 03:00:43;;;;;;;;;;;;;;;;;;5004606;28;19926;-64
2023/06/08 03:03:10;;;;;;;;;;;;;;;;;;5007912;28;19947;-63
2023/06/08 03:05:39;;;;;;;;;;;;;;;;;;5010735;28;19926;-63
2023/06/08 03:08:04;;;;;;;;;;;;;;;;;;5005320;28;19922;-63
2023/06/08 03:10:30;;;;;;;;;;;;;;;;;;5005109;28;19933;-64
2023/06/08 03:12:56;;;;;;;;;;;;;;;;;;5004453;28;19995;-64
2023/06/08 03:15:22;;;;;;;;;;;;;;;;;;5004460;28;20375;-64
2023/06/08 03:17:48;;;;;;;;;;;;;;;;;;5004263;28;19964;-64
2023/06/08 03:20:17;;;;;;;;;;;;;;;;;;5014682;28;19925;-63
2023/06/08 03:22:45;;;;;;;;;;;;;;;;;;5009497;28;19925;-63
2023/06/08 03:25:15;;;;;;;;;;;;;;;;;;5004341;28;19929;-64
2023/06/08 03:27:40;;;;;;;;;;;;;;;;;;5004342;28;19933;-64
2023/06/08 03:30:07;;;;;;;;;;;;;;;;;;5006060;28;19931;-64
2023/06/08 03:32:33;;;;;;;;;;;;;;;;;;5021199;28;19925;-64
2023/06/08 03:34:58;;;;;;;;;;;;;;;;;;5026945;28;19925;-64
2023/06/08 03:37:24;;;;;;;;;;;;;;;;;;5009429;28;19926;-64
2023/06/08 03:39:50;;;;;;;;;;;;;;;;;;5007330;28;20020;-64
2023/06/08 03:42:16;;;;;;;;;;;;;;;;;;5007987;28;20009;-64
2023/06/08 03:44:42;;;;;;;;;;;;;;;;;;5007771;28;20305;-64
2023/06/08 03:47:09;;;;;;;;;;;;;;;;;;5007912;28;19925;-64
2023/06/08 03:49:34;;;;;;;;;;;;;;;;;;5006971;28;20576;-63
2023/06/08 03:52:01;;;;;;;;;;;;;;;;;;5007860;28;19933;-63
2023/06/08 03:54:27;;;;;;;;;;;;;;;;;;5007685;28;19929;-63
2023/06/08 03:56:53;;;;;;;;;;;;;;;;;;5007651;28;19946;-63
2023/06/08 03:59:19;;;;;;;;;;;;;;;;;;5007553;28;19932;-63
2023/06/08 04:01:45;;;;;;;;;;;;;;;;;;5007406;28;19932;-63
2023/06/08 04:04:11;;;;;;;;;;;;;;;;;;5007421;28;19925;-63
2023/06/08 04:06:38;;;;;;;;;;;;;;;;;;5007772;28;20413;-64
2023/06/08 04:09:04;;;;;;;;;;;;;;;;;;5006728;28;19957;-64
2023/06/08 04:11:30;;;;;;;;;;;;;;;;;;5007743;28;20035;-64
2023/06/08 04:13:56;;;;;;;;;;;;;;;;;;5007413;28;19979;-64
2023/06/08 04:16:22;;;;;;;;;;;;;;;;;;5013295;28;19965;-64
2023/06/08 04:18:48;;;;;;;;;;;;;;;;;;5006534;28;20044;-65
2023/06/08 04:21:13;;;;;;;;;;;;;;;;;;5007018;28;19944;-64
2023/06/08 04:23:39;;;;;;;;;;;;;;;;;;5006778;28;19933;-64
2023/06/08 04:26:06;;;;;;;;;;;;;;;;;;5007259;28;19932;-63
2023/06/08 04:28:32;;;;;;;;;;;;;;;;;;5017957;28;20010;-64
2023/06/08 04:30:59;;;;;;;;;;;;;;;;;;5006956;28;19954;-64
2023/06/08 04:33:25;;;;;;;;;;;;;;;;;;5019371;28;19932;-64
2023/06/08 04:35:51;;;;;;;;;;;;;;;;;;5019825;28;19929;-63
2023/06/08 04:38:17;;;;;;;;;;;;;;;;;;5006979;28;19980;-64
2023/06/08 04:40:45;;;;;;;;;;;;;;;;;;5010695;28;19952;-65
2023/06/08 04:43:13;;;;;;;;;;;;;;;;;;5006838;28;19929;-63
2023/06/08 04:45:40;;;;;;;;;;;;;;;;;;5011151;28;20069;-64
2023/06/08 04:48:07;;;;;;;;;;;;;;;;;;5006213;28;20806;-64
2023/06/08 04:50:34;;;;;;;;;;;;;;;;;;5004682;28;20398;-64
2023/06/08 04:53:01;;;;;;;;;;;;;;;;;;5006191;28;20008;-64
2023/06/08 04:55:27;;;;;;;;;;;;;;;;;;5006615;28;19932;-64
2023/06/08 04:57:53;;;;;;;;;;;;;;;;;;5006272;28;19926;-63
2023/06/08 05:00:19;;;;;;;;;;;;;;;;;;5012901;28;19930;-63
2023/06/08 05:02:45;;;;;;;;;;;;;;;;;;5006304;28;19952;-65
2023/06/08 05:05:12;;;;;;;;;;;;;;;;;;5005678;28;19936;-64
2023/06/08 05:07:38;;;;;;;;;;;;;;;;;;5006212;28;19926;-64
2023/06/08 05:10:06;;;;;;;;;;;;;;;;;;5008464;28;22316;-64
2023/06/08 05:12:31;;;;;;;;;;;;;;;;;;5009065;28;19932;-64
2023/06/08 05:14:58;;;;;;;;;;;;;;;;;;5018368;28;20430;-65
2023/06/08 05:17:24;;;;;;;;;;;;;;;;;;5006479;28;19940;-65
2023/06/08 05:19:50;;;;;;;;;;;;;;;;;;5015930;28;19975;-65
2023/06/08 05:22:16;;;;;;;;;;;;;;;;;;5005887;28;19992;-65
2023/06/08 05:24:42;;;;;;;;;;;;;;;;;;5011820;28;19926;-65
2023/06/08 05:27:08;;;;;;;;;;;;;;;;;;5007826;28;19957;-65
2023/06/08 05:29:34;;;;;;;;;;;;;;;;;;5005962;28;20004;-65
2023/06/08 05:32:00;;;;;;;;;;;;;;;;;;5010873;28;19987;-65
2023/06/08 05:34:26;;;;;;;;;;;;;;;;;;5023784;28;19932;-68
2023/06/08 05:36:52;;;;;;;;;;;;;;;;;;5022765;28;20023;-66
2023/06/08 05:39:18;;;;;;;;;;;;;;;;;;5016150;28;19926;-67
2023/06/08 05:41:44;;;;;;;;;;;;;;;;;;5005891;28;19925;-66
2023/06/08 05:44:10;;;;;;;;;;;;;;;;;;5005601;28;19934;-66
2023/06/08 05:46:36;;;;;;;;;;;;;;;;;;5006558;28;19983;-66
2023/06/08 05:49:02;;;;;;;;;;;;;;;;;;5005169;28;19930;-66
2023/06/08 05:51:28;;;;;;;;;;;;;;;;;;5009501;28;19925;-66
2023/06/08 05:53:54;;;;;;;;;;;;;;;;;;5012733;28;19932;-66
2023/06/08 05:56:21;;;;;;;;;;;;;;;;;;5008838;28;19980;-66
2023/06/08 05:58:47;;;;;;;;;;;;;;;;;;5006213;28;19936;-66
2023/06/08 06:01:13;;;;;;;;;;;;;;;;;;5005793;28;19925;-64
2023/06/08 06:03:40;;;;;;;;;;;;;;;;;;5009473;28;20482;-64
2023/06/08 06:06:06;;;;;;;;;;;;;;;;;;5006937;28;19988;-64
2023/06/08 06:08:32;;;;;;;;;;;;;;;;;;5005057;28;19952;-63
2023/06/08 06:10:58;;;;;;;;;;;;;;;;;;5006282;28;19925;-64
2023/06/08 06:13:24;;;;;;;;;;;;;;;;;;5008481;28;19925;-64
2023/06/08 06:15:50;;;;;;;;;;;;;;;;;;5010008;28;20032;-64
2023/06/08 06:18:16;;;;;;;;;;;;;;;;;;5005614;28;20454;-64
2023/06/08 06:20:42;;;;;;;;;;;;;;;;;;5004101;28;19951;-64
2023/06/08 06:23:08;;;;;;;;;;;;;;;;;;5004892;28;19922;-65
2023/06/08 06:25:35;;;;;;;;;;;;;;;;;;5009243;28;20380;-64
2023/06/08 06:28:01;;;;;;;;;;;;;;;;;;5005550;28;19961;-64
2023/06/08 06:30:27;;;;;;;;;;;;;;;;;;5004744;28;20557;-64
2023/06/08 06:32:53;;;;;;;;;;;;;;;;;;5010864;28;19968;-64
2023/06/08 06:35:19;;;;;;;;;;;;;;;;;;5013193;28;19928;-65
2023/06/08 06:37:45;;;;;;;;;;;;;;;;;;5005073;28;20016;-64
2023/06/08 06:40:11;;;;;;;;;;;;;;;;;;5005965;28;19926;-65
2023/06/08 06:42:37;;;;;;;;;;;;;;;;;;5005198;28;19925;-65
2023/06/08 06:45:03;;;;;;;;;;;;;;;;;;5010938;28;19936;-64
2023/06/08 06:47:29;;;;;;;;;;;;;;;;;;5005546;28;19952;-64
2023/06/08 06:49:55;;;;;;;;;;;;;;;;;;5007541;28;20362;-64
2023/06/08 06:52:21;;;;;;;;;;;;;;;;;;5015291;28;19936;-64
2023/06/08 06:54:46;;;;;;;;;;;;;;;;;;5005771;28;19930;-65
2023/06/08 06:57:12;;;;;;;;;;;;;;;;;;5005670;28;19932;-64
2023/06/08 06:59:39;;;;;;;;;;;;;;;;;;5005380;28;20530;-64
2023/06/08 07:02:05;;;;;;;;;;;;;;;;;;5005492;28;19976;-64
2023/06/08 07:04:31;;;;;;;;;;;;;;;;;;5009218;28;20019;-63
2023/06/08 07:06:57;;;;;;;;;;;;;;;;;;5009524;28;19932;-65
2023/06/08 07:09:24;;;;;;;;;;;;;;;;;;5011918;28;20525;-65
2023/06/08 07:11:50;;;;;;;;;;;;;;;;;;5009406;28;19936;-65
2023/06/08 07:14:16;;;;;;;;;;;;;;;;;;5011263;28;20301;-65
2023/06/08 07:16:42;;;;;;;;;;;;;;;;;;5008890;28;19936;-65
2023/06/08 07:19:08;;;;;;;;;;;;;;;;;;5013355;28;19933;-65
2023/06/08 07:21:38;;;;;;;;;;;;;;;;;;5008859;28;19996;-64
2023/06/08 07:24:04;;;;;;;;;;;;;;;;;;5008569;28;19921;-65
2023/06/08 07:26:30;;;;;;;;;;;;;;;;;;5010989;28;20009;-64
2023/06/08 07:28:56;;;;;;;;;;;;;;;;;;5008126;28;20363;-64
2023/06/08 07:31:22;;;;;;;;;;;;;;;;;;5020056;28;19926;-64
2023/06/08 07:33:48;;;;;;;;;;;;;;;;;;5021375;28;19975;-63
2023/06/08 07:36:15;;;;;;;;;;;;;;;;;;5008339;28;19957;-64
2023/06/08 07:38:40;;;;;;;;;;;;;;;;;;5008332;28;19968;-64
2023/06/08 07:41:06;;;;;;;;;;;;;;;;;;5009338;28;19969;-64
2023/06/08 07:43:32;;;;;;;;;;;;;;;;;;5009279;28;19932;-64
2023/06/08 07:45:58;;;;;;;;;;;;;;;;;;5013932;28;19926;-64
2023/06/08 07:48:24;;;;;;;;;;;;;;;;;;5010862;28;19925;-64
2023/06/08 07:50:50;;;;;;;;;;;;;;;;;;5008695;28;19959;-64
2023/06/08 07:53:16;;;;;;;;;;;;;;;;;;5009478;28;19925;-64
2023/06/08 07:55:42;;;;;;;;;;;;;;;;;;5006426;28;19933;-64
2023/06/08 07:58:08;;;;;;;;;;;;;;;;;;5006555;28;19926;-64
2023/06/08 08:00:35;;;;;;;;;;;;;;;;;;5006803;28;19948;-64
2023/06/08 08:03:03;;;;;;;;;;;;;;;;;;5017243;28;19972;-64
2023/06/08 08:05:29;;;;;;;;;;;;;;;;;;5006535;28;19925;-64
2023/06/08 08:07:55;;;;;;;;;;;;;;;;;;5007092;28;19925;-64
2023/06/08 08:10:21;;;;;;;;;;;;;;;;;;5007724;28;20294;-64
2023/06/08 08:12:47;;;;;;;;;;;;;;;;;;5009038;28;20383;-64
2023/06/08 08:15:13;;;;;;;;;;;;;;;;;;5007347;28;19926;-64
2023/06/08 08:17:38;;;;;;;;;;;;;;;;;;5009512;28;20375;-64
2023/06/08 08:20:04;;;;;;;;;;;;;;;;;;5006629;28;20642;-64
2023/06/08 08:22:32;;;;;;;;;;;;;;;;;;5010193;28;19933;-64
2023/06/08 08:24:58;;;;;;;;;;;;;;;;;;5019606;28;19930;-64
2023/06/08 08:27:24;;;;;;;;;;;;;;;;;;5007703;28;19944;-64
2023/06/08 08:29:50;;;;;;;;;;;;;;;;;;5007232;28;19929;-64
2023/06/08 08:32:16;;;;;;;;;;;;;;;;;;5011101;28;20488;-64
2023/06/08 08:34:42;;;;;;;;;;;;;;;;;;5007499;28;20017;-64
2023/06/08 08:37:08;;;;;;;;;;;;;;;;;;5007354;28;20347;-64
2023/06/08 08:39:34;;;;;;;;;;;;;;;;;;5006920;28;19925;-64
2023/06/08 08:42:00;;;;;;;;;;;;;;;;;;5006549;28;19983;-64
2023/06/08 08:44:26;;;;;;;;;;;;;;;;;;5013148;28;20659;-64
2023/06/08 08:46:52;;;;;;;;;;;;;;;;;;5015792;28;19987;-64
2023/06/08 08:49:18;;;;;;;;;;;;;;;;;;5007740;28;19926;-64
2023/06/08 08:51:44;;;;;;;;;;;;;;;;;;5007373;28;20159;-64
2023/06/08 08:54:12;;;;;;;;;;;;;;;;;;5007599;28;19936;-64
2023/06/08 08:56:38;;;;;;;;;;;;;;;;;;5006877;28;19925;-64
2023/06/08 08:59:04;;;;;;;;;;;;;;;;;;5006911;28;19979;-65
2023/06/08 09:01:30;;;;;;;;;;;;;;;;;;5010679;28;19933;-64
2023/06/08 09:03:56;;;;;;;;;;;;;;;;;;5007906;28;19925;-64
2023/06/08 09:06:22;;;;;;;;;;;;;;;;;;5008808;28;19926;-64
2023/06/08 09:08:48;;;;;;;;;;;;;;;;;;5006364;28;19925;-64
2023/06/08 09:11:14;;;;;;;;;;;;;;;;;;5006975;28;20167;-64
2023/06/08 09:13:41;;;;;;;;;;;;;;;;;;5006339;28;20508;-64
2023/06/08 09:16:07;;;;;;;;;;;;;;;;;;5006630;28;19933;-64
2023/06/08 09:18:33;;;;;;;;;;;;;;;;;;5006403;28;19925;-64
2023/06/08 09:20:59;;;;;;;;;;;;;;;;;;5007856;28;19932;-64
2023/06/08 09:23:26;;;;;;;;;;;;;;;;;;5006372;28;19960;-64
2023/06/08 09:25:53;;;;;;;;;;;;;;;;;;5011783;28;19931;-64
2023/06/08 09:28:22;;;;;;;;;;;;;;;;;;5005382;28;19925;-64
2023/06/08 09:30:51;;;;;;;;;;;;;;;;;;5010133;28;19925;-64
2023/06/08 09:33:17;;;;;;;;;;;;;;;;;;5015951;28;19984;-64
2023/06/08 09:35:43;;;;;;;;;;;;;;;;;;5006345;28;19925;-64
2023/06/08 09:38:13;;;;;;;;;;;;;;;;;;5005610;28;19926;-64
2023/06/08 09:40:39;;;;;;;;;;;;;;;;;;5008715;28;20036;-65
2023/06/08 09:43:05;;;;;;;;;;;;;;;;;;5006535;28;19937;-64
2023/06/08 09:45:31;;;;;;;;;;;;;;;;;;5006505;28;19925;-64
2023/06/08 09:47:59;;;;;;;;;;;;;;;;;;5006134;28;19973;-64
2023/06/08 09:50:24;;;;;;;;;;;;;;;;;;5006425;28;19925;-64
2023/06/08 09:52:50;;;;;;;;;;;;;;;;;;5005813;28;19960;-64
2023/06/08 09:55:16;;;;;;;;;;;;;;;;;;5008133;28;19925;-64
2023/06/08 09:57:42;;;;;;;;;;;;;;;;;;5014829;28;19994;-64
2023/06/08 10:00:14;;;;;;;;;;;;;;;;;;5005788;28;19995;-64
2023/06/08 10:02:40;;;;;;;;;;;;;;;;;;5013533;28;19936;-64
2023/06/08 10:05:06;;;;;;;;;;;;;;;;;;5005729;28;19929;-65
2023/06/08 10:07:35;;;;;;;;;;;;;;;;;;5014976;28;19925;-64
2023/06/08 10:10:01;;;;;;;;;;;;;;;;;;5006135;28;19968;-64
2023/06/08 10:12:27;;;;;;;;;;;;;;;;;;5013291;28;19980;-64
2023/06/08 10:14:53;;;;;;;;;;;;;;;;;;5007516;28;19932;-64
2023/06/08 10:17:19;;;;;;;;;;;;;;;;;;5006985;28;19991;-64
2023/06/08 10:19:45;;;;;;;;;;;;;;;;;;5009387;28;19968;-64
2023/06/08 10:22:11;;;;;;;;;;;;;;;;;;5004716;28;20335;-64
2023/06/08 10:24:37;;;;;;;;;;;;;;;;;;5005714;28;19929;-65
2023/06/08 10:27:03;;;;;;;;;;;;;;;;;;5008010;28;19929;-64
2023/06/08 10:29:29;;;;;;;;;;;;;;;;;;5005953;28;19925;-64
2023/06/08 10:31:55;;;;;;;;;;;;;;;;;;5005005;28;19926;-64
2023/06/08 10:34:21;;;;;;;;;;;;;;;;;;5023136;28;19991;-64
2023/06/08 10:36:46;;;;;;;;;;;;;;;;;;5013413;28;19948;-64
2023/06/08 10:39:13;;;;;;;;;;;;;;;;;;5006915;28;19980;-64
2023/06/08 10:41:39;;;;;;;;;;;;;;;;;;5005493;28;19933;-64
2023/06/08 10:44:05;;;;;;;;;;;;;;;;;;5005998;28;19929;-64
2023/06/08 10:46:31;;;;;;;;;;;;;;;;;;5005642;28;19925;-64
2023/06/08 10:48:57;;;;;;;;;;;;;;;;;;5005298;28;19932;-64
2023/06/08 10:51:23;;;;;;;;;;;;;;;;;;5008458;28;19929;-64
2023/06/08 10:53:49;;;;;;;;;;;;;;;;;;5005149;28;19926;-64
2023/06/08 10:56:15;;;;;;;;;;;;;;;;;;5008815;28;20016;-64
2023/06/08 10:58:41;;;;;;;;;;;;;;;;;;5007981;28;20004;-64
2023/06/08 11:01:07;;;;;;;;;;;;;;;;;;4988042;28;19952;-64
2023/06/08 11:03:33;;;;;;;;;;;;;;;;;;5013044;28;19929;-64
2023/06/08 11:05:59;;;;;;;;;;;;;;;;;;5010190;28;19925;-64
2023/06/08 11:08:25;;;;;;;;;;;;;;;;;;5019871;28;19925;-64
2023/06/08 11:10:51;;;;;;;;;;;;;;;;;;5020159;28;19925;-64
2023/06/08 11:13:17;;;;;;;;;;;;;;;;;;5018420;28;19972;-64
2023/06/08 11:15:43;;;;;;;;;;;;;;;;;;5016881;28;19925;-65
2023/06/08 11:18:09;;;;;;;;;;;;;;;;;;5015425;28;19983;-64
2023/06/08 11:20:37;;;;;;;;;;;;;;;;;;5010971;28;20043;-64
2023/06/08 11:23:03;;;;;;;;;;;;;;;;;;5011546;28;19949;-64
2023/06/08 11:25:29;;;;;;;;;;;;;;;;;;5013687;28;19933;-64
2023/06/08 11:27:57;;;;;;;;;;;;;;;;;;5008140;28;19949;-64
2023/06/08 11:30:23;;;;;;;;;;;;;;;;;;5010205;28;20415;-64
2023/06/08 11:32:49;;;;;;;;;;;;;;;;;;5015264;28;20015;-64
2023/06/08 11:35:15;;;;;;;;;;;;;;;;;;5011405;28;20118;-64
2023/06/08 11:37:43;;;;;;;;;;;;;;;;;;5017947;28;19929;-64
2023/06/08 11:40:10;;;;;;;;;;;;;;;;;;5008219;28;19925;-64
2023/06/08 11:42:36;;;;;;;;;;;;;;;;;;4992630;28;19925;-66
2023/06/08 11:45:03;;;;;;;;;;;;;;;;;;5007153;28;20395;-65
2023/06/08 11:47:29;;;;;;;;;;;;;;;;;;5012634;28;20387;-63
2023/06/08 11:49:57;;;;;;;;;;;;;;;;;;5011301;28;19974;-64
2023/06/08 11:52:23;;;;;;;;;;;;;;;;;;5021117;28;20016;-64
2023/06/08 11:54:49;;;;;;;;;;;;;;;;;;5011222;28;20016;-64
2023/06/08 11:57:15;;;;;;;;;;;;;;;;;;5012038;28;20411;-64
2023/06/08 11:59:41;;;;;;;;;;;;;;;;;;5021125;28;19940;-64
2023/06/08 12:02:09;;;;;;;;;;;;;;;;;;5009192;28;19925;-64
2023/06/08 12:04:35;;;;;;;;;;;;;;;;;;5009947;28;19940;-64
2023/06/08 12:07:02;;;;;;;;;;;;;;;;;;5019951;28;20418;-64
2023/06/08 12:09:28;;;;;;;;;;;;;;;;;;5023242;28;19932;-64
2023/06/08 12:11:54;;;;;;;;;;;;;;;;;;5006704;28;19929;-65
2023/06/08 12:14:20;;;;;;;;;;;;;;;;;;5019533;28;19953;-64
2023/06/08 12:16:46;;;;;;;;;;;;;;;;;;5020364;28;19925;-64
2023/06/08 12:19:12;;;;;;;;;;;;;;;;;;5017117;28;19983;-65
2023/06/08 12:21:38;;;;;;;;;;;;;;;;;;5013646;28;19929;-66
2023/06/08 12:24:04;;;;;;;;;;;;;;;;;;5017633;28;19932;-64
2023/06/08 12:26:30;;;;;;;;;;;;;;;;;;5016118;28;20467;-64
2023/06/08 12:28:56;;;;;;;;;;;;;;;;;;5022572;28;19929;-64
2023/06/08 12:31:22;;;;;;;;;;;;;;;;;;5014030;28;19925;-64
2023/06/08 12:33:48;;;;;;;;;;;;;;;;;;5022291;28;19932;-65
2023/06/08 12:36:14;;;;;;;;;;;;;;;;;;5023794;28;19925;-64
2023/06/08 12:38:40;;;;;;;;;;;;;;;;;;5002342;28;20361;-64
2023/06/08 12:41:06;;;;;;;;;;;;;;;;;;5018576;28;19925;-64
2023/06/08 12:43:32;;;;;;;;;;;;;;;;;;5010922;28;20016;-64
2023/06/08 12:45:57;;;;;;;;;;;;;;;;;;5010448;28;20012;-63
2023/06/08 12:48:24;;;;;;;;;;;;;;;;;;5010382;28;19925;-64
2023/06/08 12:50:50;;;;;;;;;;;;;;;;;;5013052;28;20394;-64
2023/06/08 12:53:16;;;;;;;;;;;;;;;;;;5009779;28;19933;-64
2023/06/08 12:55:42;;;;;;;;;;;;;;;;;;5009619;28;19929;-64
2023/06/08 12:58:08;;;;;;;;;;;;;;;;;;5013954;28;19987;-64
2023/06/08 13:00:34;;;;;;;;;;;;;;;;;;5016457;28;19925;-64
2023/06/08 13:03:02;;;;;;;;;;;;;;;;;;5012789;28;19929;-64
2023/06/08 13:05:29;;;;;;;;;;;;;;;;;;5016151;28;20528;-64
2023/06/08 13:07:55;;;;;;;;;;;;;;;;;;5014584;28;20335;-64
2023/06/08 13:10:22;;;;;;;;;;;;;;;;;;5013601;28;19933;-64
2023/06/08 13:12:48;;;;;;;;;;;;;;;;;;5019077;28;19932;-64
2023/06/08 13:15:14;;;;;;;;;;;;;;;;;;5022432;28;19929;-64
2023/06/08 13:17:40;;;;;;;;;;;;;;;;;;5008664;28;19972;-64
2023/06/08 13:20:06;;;;;;;;;;;;;;;;;;5016760;28;19979;-64
2023/06/08 13:22:32;;;;;;;;;;;;;;;;;;5012585;28;19925;-64
2023/06/08 13:24:58;;;;;;;;;;;;;;;;;;5007307;28;19933;-64
2023/06/08 13:27:25;;;;;;;;;;;;;;;;;;5007613;28;20338;-64
2023/06/08 13:29:51;;;;;;;;;;;;;;;;;;5006166;28;19993;-64
2023/06/08 13:32:17;;;;;;;;;;;;;;;;;;5012173;28;19937;-64
2023/06/08 13:34:43;;;;;;;;;;;;;;;;;;5011472;28;19948;-64
2023/06/08 13:37:09;;;;;;;;;;;;;;;;;;5021237;28;19936;-64
2023/06/08 13:39:35;;;;;;;;;;;;;;;;;;5021117;28;19983;-64
2023/06/08 13:42:01;;;;;;;;;;;;;;;;;;5017062;28;19956;-64
2023/06/08 13:44:27;;;;;;;;;;;;;;;;;;5009965;28;19925;-64
2023/06/08 13:46:53;;;;;;;;;;;;;;;;;;5012078;28;19925;-64
2023/06/08 13:49:19;;;;;;;;;;;;;;;;;;5008953;28;20118;-64
2023/06/08 13:51:47;;;;;;;;;;;;;;;;;;5009118;28;20354;-64
2023/06/08 13:54:14;;;;;;;;;;;;;;;;;;5007135;28;19972;-64
2023/06/08 13:56:40;;;;;;;;;;;;;;;;;;5011652;28;19929;-64
2023/06/08 13:59:06;;;;;;;;;;;;;;;;;;5009637;28;19933;-64
2023/06/08 14:01:32;;;;;;;;;;;;;;;;;;5015718;28;19929;-64
2023/06/08 14:03:58;;;;;;;;;;;;;;;;;;5012627;28;20441;-65
2023/06/08 14:06:24;;;;;;;;;;;;;;;;;;5011131;28;19925;-64
2023/06/08 14:08:50;;;;;;;;;;;;;;;;;;5007391;28;20019;-64
2023/06/08 14:11:16;;;;;;;;;;;;;;;;;;5006620;28;20437;-64
2023/06/08 14:13:43;;;;;;;;;;;;;;;;;;5005022;28;19929;-64
2023/06/08 14:16:10;;;;;;;;;;;;;;;;;;5006267;28;20397;-64
2023/06/08 14:18:36;;;;;;;;;;;;;;;;;;5019944;28;19929;-64
2023/06/08 14:21:02;;;;;;;;;;;;;;;;;;5013530;28;19925;-64
2023/06/08 14:23:28;;;;;;;;;;;;;;;;;;5014694;28;20628;-64
2023/06/08 14:25:54;;;;;;;;;;;;;;;;;;5012892;28;19981;-64
2023/06/08 14:28:20;;;;;;;;;;;;;;;;;;5009424;28;19925;-64
2023/06/08 14:30:46;;;;;;;;;;;;;;;;;;5016026;28;19933;-65
2023/06/08 14:33:12;;;;;;;;;;;;;;;;;;5015638;28;20386;-65
2023/06/08 14:35:38;;;;;;;;;;;;;;;;;;5019460;28;19937;-65
2023/06/08 14:38:04;;;;;;;;;;;;;;;;;;5023094;28;19933;-65
2023/06/08 14:40:30;;;;;;;;;;;;;;;;;;5019319;28;19929;-65
2023/06/08 14:42:56;;;;;;;;;;;;;;;;;;5021233;28;19937;-65
2023/06/08 14:45:23;;;;;;;;;;;;;;;;;;5015321;28;19925;-65
2023/06/08 14:47:49;;;;;;;;;;;;;;;;;;5016509;28;19928;-66
2023/06/08 14:50:15;;;;;;;;;;;;;;;;;;5008026;28;20012;-65
2023/06/08 14:52:41;;;;;;;;;;;;;;;;;;5010805;28;20028;-65
2023/06/08 14:55:07;;;;;;;;;;;;;;;;;;5005775;28;20371;-64
2023/06/08 14:57:33;;;;;;;;;;;;;;;;;;5007484;28;20591;-64
2023/06/08 14:59:58;;;;;;;;;;;;;;;;;;5005354;28;20039;-64
2023/06/08 15:02:24;;;;;;;;;;;;;;;;;;5004161;28;19926;-64
2023/06/08 15:04:50;;;;;;;;;;;;;;;;;;5017971;28;19999;-62
2023/06/08 15:07:16;;;;;;;;;;;;;;;;;;5015215;28;19969;-62
2023/06/08 15:09:42;;;;;;;;;;;;;;;;;;5019333;28;20007;-62
2023/06/08 15:12:08;;;;;;;;;;;;;;;;;;5012147;28;20048;-63
2023/06/08 15:14:34;;;;;;;;;;;;;;;;;;5011762;28;20365;-63
2023/06/08 15:17:01;;;;;;;;;;;;;;;;;;5010734;28;19929;-63
2023/06/08 15:19:27;;;;;;;;;;;;;;;;;;5012061;28;19932;-62
2023/06/08 15:21:53;;;;;;;;;;;;;;;;;;5017845;28;19925;-62
2023/06/08 15:24:18;;;;;;;;;;;;;;;;;;5010086;28;20555;-64
2023/06/08 15:26:46;;;;;;;;;;;;;;;;;;5013967;28;19929;-65
2023/06/08 15:29:12;;;;;;;;;;;;;;;;;;5017611;28;20350;-64
2023/06/08 15:31:37;;;;;;;;;;;;;;;;;;5015445;28;19926;-64
2023/06/08 15:34:03;;;;;;;;;;;;;;;;;;5009841;28;19929;-64
2023/06/08 15:36:29;;;;;;;;;;;;;;;;;;5016732;28;19928;-63
2023/06/08 15:38:55;;;;;;;;;;;;;;;;;;5019161;28;20339;-63
2023/06/08 15:41:21;;;;;;;;;;;;;;;;;;5024018;28;20438;-63
2023/06/08 15:43:47;;;;;;;;;;;;;;;;;;5013767;28;19948;-63
2023/06/08 15:46:14;;;;;;;;;;;;;;;;;;5018653;28;20411;-63
2023/06/08 15:48:39;;;;;;;;;;;;;;;;;;5012111;28;19968;-63
2023/06/08 15:51:05;;;;;;;;;;;;;;;;;;5014202;28;19964;-63
2023/06/08 15:53:31;;;;;;;;;;;;;;;;;;5016830;28;20363;-64
2023/06/08 15:55:57;;;;;;;;;;;;;;;;;;5012572;28;19952;-63
2023/06/08 15:58:25;;;;;;;;;;;;;;;;;;5018202;28;20045;-63
2023/06/08 16:00:51;;;;;;;;;;;;;;;;;;5021115;28;19925;-63
2023/06/08 16:03:19;;;;;;;;;;;;;;;;;;5010001;28;19979;-63
2023/06/08 16:05:45;;;;;;;;;;;;;;;;;;5013952;28;20020;-63
2023/06/08 16:08:16;;;;;;;;;;;;;;;;;;5015863;28;20011;-63
2023/06/08 16:10:42;;;;;;;;;;;;;;;;;;5016098;28;19948;-64
2023/06/08 16:13:08;;;;;;;;;;;;;;;;;;5020260;28;19925;-64
2023/06/08 16:15:34;;;;;;;;;;;;;;;;;;5007351;28;19933;-63
2023/06/08 16:18:00;;;;;;;;;;;;;;;;;;5009452;28;19925;-63
2023/06/08 16:20:26;;;;;;;;;;;;;;;;;;5019514;28;19925;-64
2023/06/08 16:22:52;;;;;;;;;;;;;;;;;;5013211;28;19988;-64
2023/06/08 16:25:17;;;;;;;;;;;;;;;;;;4976510;28;19925;-64
2023/06/08 16:27:43;;;;;;;;;;;;;;;;;;4997703;28;19925;-64
2023/06/08 16:30:09;;;;;;;;;;;;;;;;;;5011095;28;19932;-63
2023/06/08 16:32:35;;;;;;;;;;;;;;;;;;5024145;28;19925;-64
2023/06/08 16:35:02;;;;;;;;;;;;;;;;;;5015225;28;20007;-64
2023/06/08 16:37:30;;;;;;;;;;;;;;;;;;5021271;28;20469;-63